Time;durP1;ratioP1;P1;durP2;ratioP2;P2;SDS_P1;SDS_P2;PMS_P1;PMS_P2;Temp;Humidity;BMP_temperature;BMP_pressure;BME280_temperature;BME280_humidity;BME280_pressure;Samples;Min_cycle;Max_cycle;Signal;HPM_P1;HPM_P2
2022/08/19 00:01:43;;;;;;;16.17;9.10;;;;;;;19.77;99.54;99736.15;1691553;84;21610;-68
2022/08/19 00:04:12;;;;;;;19.62;9.58;;;;;;;19.72;99.84;99737.02;1691790;83;21714;-68
2022/08/19 00:06:40;;;;;;;19.23;9.18;;;;;;;19.71;99.98;99733.97;1691855;83;21110;-69
2022/08/19 00:09:08;;;;;;;16.37;8.73;;;;;;;19.67;100.00;99737.86;1691878;84;21097;-69
2022/08/19 00:11:37;;;;;;;16.10;8.63;;;;;;;19.56;100.00;99737.88;1692061;84;21073;-68
2022/08/19 00:14:05;;;;;;;20.85;9.38;;;;;;;19.49;100.00;99739.69;1691910;84;21035;-68
2022/08/19 00:16:32;;;;;;;47.13;9.60;;;;;;;19.44;100.00;99747.23;1691990;84;21031;-69
2022/08/19 00:18:59;;;;;;;21.75;9.75;;;;;;;19.44;100.00;99743.22;1691813;84;21115;-69
2022/08/19 00:21:26;;;;;;;24.40;9.78;;;;;;;19.43;100.00;99749.52;1691557;84;21070;-67
2022/08/19 00:23:55;;;;;;;20.27;9.63;;;;;;;19.38;100.00;99760.22;1691742;84;21284;-69
2022/08/19 00:26:21;;;;;;;17.02;8.73;;;;;;;19.33;100.00;99757.07;1691715;83;21066;-69
2022/08/19 00:28:47;;;;;;;20.32;8.95;;;;;;;19.31;100.00;99753.17;1693629;82;21047;-69
2022/08/19 00:31:16;;;;;;;18.25;8.93;;;;;;;19.27;100.00;99746.38;1712778;83;21105;-68
2022/08/19 00:33:42;;;;;;;23.05;10.72;;;;;;;19.21;100.00;99744.18;1678456;85;21545;-69
2022/08/19 00:36:11;;;;;;;35.13;18.20;;;;;;;19.20;100.00;99745.16;1713083;83;21807;-69
2022/08/19 00:38:40;;;;;;;42.58;21.23;;;;;;;19.15;100.00;99750.02;1713008;83;21105;-68
2022/08/19 00:41:06;;;;;;;46.98;24.20;;;;;;;19.18;100.00;99751.11;1713137;82;21031;-69
2022/08/19 00:43:33;;;;;;;44.55;22.80;;;;;;;19.18;100.00;99741.77;1712990;83;21070;-68
2022/08/19 00:46:04;;;;;;;35.70;21.05;;;;;;;19.20;100.00;99743.83;1713147;83;21525;-67
2022/08/19 00:48:29;;;;;;;33.10;18.73;;;;;;;19.18;100.00;99741.77;1712861;82;21491;-69
2022/08/19 00:50:55;;;;;;;35.78;19.90;;;;;;;19.21;100.00;99744.18;1712938;83;21113;-70
2022/08/19 00:53:25;;;;;;;29.12;16.20;;;;;;;19.20;100.00;99744.67;1712953;83;22093;-68
2022/08/19 00:55:54;;;;;;;31.37;16.05;;;;;;;19.02;100.00;99744.30;1713270;83;21016;-69
2022/08/19 00:58:24;;;;;;;25.35;14.53;;;;;;;18.94;100.00;99750.73;1713202;82;21099;-67
2022/08/19 01:00:50;;;;;;;23.83;14.45;;;;;;;18.89;100.00;99752.92;1713082;82;21191;-68
2022/08/19 01:03:20;;;;;;;30.08;12.65;;;;;;;18.84;100.00;99760.41;1713021;83;21053;-68
2022/08/19 01:05:49;;;;;;;22.45;12.47;;;;;;;18.82;100.00;99759.70;1713242;83;21057;-68
2022/08/19 01:08:17;;;;;;;15.55;11.38;;;;;;;18.77;100.00;99762.72;1713326;83;21086;-68
2022/08/19 01:10:47;;;;;;;24.18;11.93;;;;;;;18.76;100.00;99758.30;1713090;82;21058;-68
2022/08/19 01:13:16;;;;;;;22.67;11.93;;;;;;;18.71;100.00;99765.81;1703439;83;21018;-69
2022/08/19 01:15:47;;;;;;;21.23;11.55;;;;;;;18.65;100.00;99764.45;1713339;83;21304;-69
2022/08/19 01:18:15;;;;;;;28.38;13.25;;;;;;;18.62;100.00;99767.36;1713004;83;21051;-69
2022/08/19 01:20:42;;;;;;;20.15;11.85;;;;;;;18.60;100.00;99771.96;1712688;83;21018;-67
2022/08/19 01:23:09;;;;;;;26.68;15.30;;;;;;;18.55;100.00;99766.13;1713135;83;21065;-68
2022/08/19 01:25:51;;;;;;;24.18;15.35;;;;;;;18.56;100.00;99770.48;1713045;83;21215;-68
2022/08/19 01:28:21;;;;;;;34.35;17.37;;;;;;;18.54;100.00;99765.78;1713120;82;21137;-68
2022/08/19 01:30:47;;;;;;;34.20;18.67;;;;;;;18.51;100.00;99760.66;1723079;82;21052;-70
2022/08/19 01:33:14;;;;;;;38.63;21.07;;;;;;;18.47;100.00;99762.34;1725547;83;21056;-70
2022/08/19 01:35:41;;;;;;;35.15;21.20;;;;;;;18.46;100.00;99764.16;1725760;82;21022;-69
2022/08/19 01:38:10;;;;;;;38.20;23.02;;;;;;;18.43;100.00;99761.25;1726205;82;21256;-68
2022/08/19 01:40:39;;;;;;;42.08;24.25;;;;;;;18.44;100.00;99763.42;1725809;83;21132;-68
2022/08/19 01:43:06;;;;;;;47.17;25.95;;;;;;;18.43;100.00;99756.41;1726249;83;21089;-68
2022/08/19 01:45:33;;;;;;;49.67;23.83;;;;;;;18.39;100.00;99757.11;1726098;83;21002;-68
2022/08/19 01:48:00;;;;;;;38.65;21.73;;;;;;;18.42;100.00;99750.69;1726162;83;21100;-69
2022/08/19 01:50:27;;;;;;;33.38;16.27;;;;;;;18.58;100.00;99752.56;1725846;83;21138;-68
2022/08/19 01:52:53;;;;;;;30.68;15.08;;;;;;;18.47;100.00;99745.02;1725982;83;21787;-68
2022/08/19 01:55:23;;;;;;;24.65;13.30;;;;;;;18.32;100.00;99751.03;1725725;82;21046;-68
2022/08/19 01:57:53;;;;;;;26.52;13.83;;;;;;;18.29;100.00;99756.58;1709465;83;21087;-69
2022/08/19 02:00:21;;;;;;;22.07;12.07;;;;;;;18.31;100.00;99746.66;1726082;83;21569;-67
2022/08/19 02:02:48;;;;;;;22.45;11.45;;;;;;;18.24;100.00;99746.26;1725744;83;21097;-69
2022/08/19 02:05:16;;;;;;;19.60;11.12;;;;;;;18.21;100.00;99748.67;1725724;82;21018;-68
2022/08/19 02:07:44;;;;;;;24.35;12.63;;;;;;;18.21;100.00;99749.16;1725856;83;21101;-70
2022/08/19 02:10:14;;;;;;;20.72;11.80;;;;;;;18.17;100.00;99749.86;1726029;83;21002;-69
2022/08/19 02:12:41;;;;;;;26.05;11.70;;;;;;;18.17;100.00;99755.69;1726026;83;21077;-69
2022/08/19 02:15:08;;;;;;;22.20;11.30;;;;;;;18.16;100.00;99749.51;1726190;82;21762;-68
2022/08/19 02:17:35;;;;;;;28.85;11.10;;;;;;;18.13;100.00;99748.41;1725784;83;21021;-69
2022/08/19 02:20:03;;;;;;;22.20;11.15;;;;;;;18.11;100.00;99757.00;1725818;83;21060;-68
2022/08/19 02:22:30;;;;;;;19.27;10.53;;;;;;;18.03;100.00;99750.05;1725587;83;21454;-68
2022/08/19 02:24:56;;;;;;;20.00;10.63;;;;;;;17.98;100.00;99748.21;1725997;83;21060;-68
2022/08/19 02:27:23;;;;;;;20.37;10.05;;;;;;;17.96;100.00;99744.31;1725890;83;21524;-70
2022/08/19 02:29:50;;;;;;;20.27;10.65;;;;;;;17.97;100.00;99741.20;1725758;83;21541;-69
2022/08/19 02:32:19;;;;;;;17.55;9.83;;;;;;;17.96;100.00;99744.31;1725617;83;21044;-69
2022/08/19 02:34:47;;;;;;;16.25;9.68;;;;;;;17.94;100.00;99744.06;1725828;83;21065;-69
2022/08/19 02:39:59;;;;;;;22.42;8.63;;;;;;;17.92;100.00;99748.66;1691404;84;21103;-68
2022/08/19 02:42:25;;;;;;;24.47;9.68;;;;;;;17.94;100.00;99752.91;1673310;85;21113;-68
2022/08/19 02:44:51;;;;;;;20.50;8.93;;;;;;;17.92;100.00;99753.98;1674067;85;21605;-68
2022/08/19 02:47:18;;;;;;;21.73;9.20;;;;;;;17.90;100.00;99751.91;1673581;85;21050;-68
2022/08/19 02:49:45;;;;;;;14.78;8.25;;;;;;;17.93;100.00;99750.37;1673629;85;21593;-67
2022/08/19 02:52:12;;;;;;;17.32;8.90;;;;;;;17.91;100.00;99753.62;1673609;85;21570;-69
2022/08/19 02:54:39;;;;;;;19.95;9.03;;;;;;;17.94;100.00;99752.91;1664171;85;21067;-69
2022/08/19 02:57:06;;;;;;;16.35;9.33;;;;;;;17.89;100.00;99754.22;1662288;86;21101;-68
2022/08/19 02:59:34;;;;;;;18.90;9.58;;;;;;;17.84;100.00;99752.38;1662432;86;21061;-69
2022/08/19 03:02:00;;;;;;;16.62;9.58;;;;;;;17.82;100.00;99751.98;1671609;85;21054;-69
2022/08/19 03:04:27;;;;;;;14.05;9.10;;;;;;;17.84;100.00;99752.38;1673920;85;21187;-69
2022/08/19 03:06:53;;;;;;;22.35;9.33;;;;;;;17.85;100.00;99750.91;1673602;85;21069;-70
2022/08/19 03:09:20;;;;;;;20.17;9.18;;;;;;;17.86;100.00;99749.97;1673808;85;21061;-69
2022/08/19 03:11:47;;;;;;;20.40;9.43;;;;;;;17.87;100.00;99750.81;1673498;85;21110;-68
2022/08/19 03:14:14;;;;;;;18.00;8.78;;;;;;;17.86;100.00;99751.79;1674012;85;21022;-69
2022/08/19 03:16:47;;;;;;;15.05;9.90;;;;;;;17.87;100.00;99752.14;1673520;85;21108;-70
2022/08/19 03:19:16;;;;;;;17.00;10.03;;;;;;;17.87;100.00;99756.14;1673792;85;21058;-68
2022/08/19 03:21:44;;;;;;;18.65;9.65;;;;;;;17.89;100.00;99760.88;1673485;85;21151;-68
2022/08/19 03:24:13;;;;;;;20.32;9.38;;;;;;;17.92;100.00;99753.52;1673924;85;21105;-68
2022/08/19 03:26:43;;;;;;;19.40;9.33;;;;;;;18.05;100.00;99761.94;1673048;84;21585;-68
2022/08/19 03:29:11;;;;;;;20.30;9.28;;;;;;;18.21;100.00;99765.16;1674025;85;21233;-69
2022/08/19 03:31:38;;;;;;;19.30;8.58;;;;;;;18.42;100.00;99765.36;1670985;85;21571;-69
2022/08/19 03:34:05;;;;;;;24.35;8.45;;;;;;;18.61;100.00;99767.02;1670630;85;21585;-68
2022/08/19 03:36:32;;;;;;;13.58;7.87;;;;;;;18.71;100.00;99771.16;1670485;85;21039;-69
2022/08/19 03:39:02;;;;;;;10.40;7.03;;;;;;;18.88;100.00;99772.55;1678227;85;21041;-70
2022/08/19 03:41:38;;;;;;;14.80;7.62;;;;;;;19.13;100.00;99779.49;1678379;85;21884;-69
2022/08/19 03:44:04;;;;;;;16.52;6.90;;;;;;;19.36;100.00;99775.02;1678424;85;21085;-69
2022/08/19 03:46:33;;;;;;;10.53;6.75;;;;;;;19.66;100.00;99778.88;1678230;85;21566;-69
2022/08/19 03:49:00;;;;;;;11.93;6.65;;;;;;;19.88;100.00;99782.05;1678128;85;21559;-69
2022/08/19 03:51:34;;;;;;;11.85;6.78;;;;;;;20.13;100.00;99786.23;1678365;85;21073;-68
2022/08/19 03:54:03;;;;;;;14.07;6.12;;;;;;;20.38;100.00;99782.84;1678145;85;22021;-68
2022/08/19 03:56:30;;;;;;;16.52;6.30;;;;;;;20.58;99.01;99783.39;1678265;85;21073;-69
2022/08/19 03:58:59;;;;;;;16.50;6.95;;;;;;;20.84;97.55;99781.66;1678242;85;20993;-70
2022/08/19 04:01:27;;;;;;;15.72;6.72;;;;;;;21.16;94.90;99779.77;1678416;85;21096;-70
2022/08/19 04:03:55;;;;;;;18.40;6.17;;;;;;;21.49;93.06;99788.53;1678155;85;21065;-69
2022/08/19 04:06:34;;;;;;;9.53;5.15;;;;;;;21.92;90.15;99795.41;1678410;85;21228;-69
2022/08/19 04:09:04;;;;;;;15.18;5.70;;;;;;;22.30;87.09;99805.89;1678143;85;21084;-69
2022/08/19 04:11:41;;;;;;;11.90;5.42;;;;;;;22.57;84.40;99808.38;1678482;85;21033;-69
2022/08/19 04:14:10;;;;;;;23.07;5.78;;;;;;;22.84;81.21;99806.28;1678362;85;21022;-69
2022/08/19 04:16:37;;;;;;;13.00;5.60;;;;;;;23.08;79.33;99808.55;1678553;85;21088;-69
2022/08/19 04:19:04;;;;;;;9.93;5.10;;;;;;;23.24;77.24;99811.97;1678392;85;21233;-69
2022/08/19 04:21:33;;;;;;;16.80;5.80;;;;;;;23.36;76.33;99813.98;1678509;85;21002;-69
2022/08/19 04:23:59;;;;;;;15.38;6.75;;;;;;;23.56;75.14;99806.20;1678382;85;21529;-70
2022/08/19 04:26:31;;;;;;;12.58;5.85;;;;;;;23.71;73.38;99808.38;1678412;85;21076;-69
2022/08/19 04:28:58;;;;;;;17.77;6.83;;;;;;;23.80;71.79;99807.52;1678356;85;21116;-69
2022/08/19 04:31:27;;;;;;;10.08;6.10;;;;;;;23.79;71.54;99802.65;1685941;84;21139;-70
2022/08/19 04:33:56;;;;;;;13.53;5.55;;;;;;;23.97;71.33;99809.89;1690859;84;21127;-70
2022/08/19 04:36:26;;;;;;;14.05;6.08;;;;;;;24.25;69.29;99818.80;1665535;84;21088;-69
2022/08/19 04:38:56;;;;;;;16.80;5.95;;;;;;;24.45;68.79;99821.66;1690980;84;21670;-70
2022/08/19 04:45:13;;;;;;;17.50;4.97;;;;;;;24.87;65.24;99812.98;1855210;75;22556;-70
2022/08/19 04:47:41;;;;;;;12.82;5.62;;;;;;;24.83;65.32;99812.94;1858558;77;21081;-69
2022/08/19 04:50:11;;;;;;;17.35;5.25;;;;;;;24.91;64.50;99807.63;1858798;77;21108;-69
2022/08/19 04:52:42;;;;;;;11.10;4.62;;;;;;;25.10;64.12;99811.13;1858819;77;21018;-69
2022/08/19 04:55:08;;;;;;;14.37;5.10;;;;;;;25.29;62.61;99808.23;1878993;76;21068;-69
2022/08/19 04:57:36;;;;;;;10.15;4.60;;;;;;;25.35;63.04;99801.86;1878925;76;21000;-70
2022/08/19 05:00:03;;;;;;;14.03;5.28;;;;;;;25.57;61.49;99794.56;1879468;76;21016;-70
2022/08/19 05:02:30;;;;;;;12.60;4.62;;;;;;;25.69;61.40;99810.78;1878776;76;21203;-70
2022/08/19 05:04:59;;;;;;;12.95;4.95;;;;;;;25.92;59.98;99811.06;1879203;76;20969;-69
2022/08/19 05:07:27;;;;;;;9.00;4.45;;;;;;;25.93;59.79;99809.23;1879226;76;22127;-69
2022/08/19 05:09:53;;;;;;;15.78;5.58;;;;;;;26.06;60.23;99807.41;1879225;76;21600;-69
2022/08/19 05:12:20;;;;;;;13.58;5.15;;;;;;;26.39;58.74;99815.08;1879039;76;21032;-69
2022/08/19 05:14:49;;;;;;;15.18;5.45;;;;;;;26.49;57.82;99810.34;1879268;76;21577;-68
2022/08/19 05:17:16;;;;;;;12.00;5.17;;;;;;;26.55;57.07;99813.77;1879065;76;21037;-70
2022/08/19 05:22:35;;;;;;;15.93;5.03;;;;;;;26.78;56.82;99825.27;1878916;76;21818;-69
2022/08/19 05:25:08;;;;;;;13.48;4.65;;;;;;;27.03;55.95;99819.30;1879190;76;21286;-68
2022/08/19 05:27:35;;;;;;;12.05;4.65;;;;;;;27.30;54.84;99815.92;1878838;75;21262;-71
2022/08/19 05:30:01;;;;;;;11.48;4.80;;;;;;;27.29;54.15;99809.68;1879173;76;20993;-70
2022/08/19 05:32:28;;;;;;;16.42;4.45;;;;;;;27.29;54.03;99815.61;1878848;76;21025;-71
2022/08/19 05:34:55;;;;;;;13.68;5.00;;;;;;;27.28;53.88;99820.66;1879064;76;21041;-69
2022/08/19 05:37:22;;;;;;;15.90;4.35;;;;;;;27.27;54.19;99826.58;1879381;76;21021;-70
2022/08/19 05:39:49;;;;;;;18.90;5.10;;;;;;;27.46;54.03;99833.97;1879106;76;21216;-69
2022/08/19 05:42:15;;;;;;;15.50;4.90;;;;;;;27.77;53.12;99833.53;1879718;76;21363;-69
2022/08/19 05:44:43;;;;;;;13.20;4.90;;;;;;;27.96;52.44;99836.34;1878987;76;21005;-69
2022/08/19 05:47:14;;;;;;;16.73;5.03;;;;;;;28.09;51.34;99826.31;1879139;76;21033;-69
2022/08/19 05:49:42;;;;;;;11.22;4.17;;;;;;;28.01;51.93;99827.70;1879152;76;21655;-70
2022/08/19 05:52:13;;;;;;;20.02;5.22;;;;;;;28.10;51.81;99825.80;1878847;76;22200;-69
2022/08/19 05:54:41;;;;;;;17.42;4.58;;;;;;;28.31;51.09;99825.98;1862005;76;22161;-70
2022/08/19 05:57:08;;;;;;;16.97;4.78;;;;;;;28.34;50.52;99824.78;1858418;77;21089;-70
2022/08/19 05:59:35;;;;;;;11.12;4.53;;;;;;;28.26;51.53;99826.21;1858281;77;21077;-70
2022/08/19 06:02:03;;;;;;;14.25;5.22;;;;;;;28.41;50.43;99825.75;1858187;77;21032;-71
2022/08/19 06:04:30;;;;;;;18.17;5.15;;;;;;;28.53;50.48;99818.94;1858144;77;21823;-70
2022/08/19 06:06:58;;;;;;;20.85;5.35;;;;;;;28.75;50.55;99822.64;1858154;77;20974;-70
2022/08/19 06:09:24;;;;;;;14.07;4.72;;;;;;;29.01;49.94;99820.91;1858058;77;22231;-70
2022/08/19 06:11:55;;;;;;;12.80;4.08;;;;;;;29.24;48.78;99826.80;1858347;77;21561;-70
2022/08/19 06:14:26;;;;;;;8.75;4.30;;;;;;;29.34;48.76;99835.52;1858341;77;21073;-71
2022/08/19 06:16:53;;;;;;;22.35;5.37;;;;;;;29.56;48.36;99843.75;1857948;77;21120;-69
2022/08/19 06:19:21;;;;;;;13.08;4.30;;;;;;;29.74;47.26;99842.88;1857816;77;21315;-69
2022/08/19 06:21:50;;;;;;;17.55;4.65;;;;;;;29.78;46.94;99842.84;1857947;77;21550;-70
2022/08/19 06:24:22;;;;;;;12.18;4.28;;;;;;;29.87;46.86;99841.70;1858350;77;21107;-71
2022/08/19 06:26:50;;;;;;;16.70;5.53;;;;;;;30.08;46.41;99842.80;1858107;77;21190;-71
2022/08/19 06:29:18;;;;;;;15.05;4.58;;;;;;;30.15;46.52;99845.07;1858295;77;21824;-69
2022/08/19 06:31:49;;;;;;;15.88;4.90;;;;;;;30.36;46.46;99832.59;1857897;77;21077;-70
2022/08/19 06:34:16;;;;;;;17.52;4.53;;;;;;;30.72;45.76;99833.37;1858353;77;21100;-71
2022/08/19 06:36:46;;;;;;;12.35;4.17;;;;;;;30.91;44.30;99831.05;1857832;77;21015;-69
2022/08/19 06:39:17;;;;;;;17.70;4.60;;;;;;;30.64;44.72;99825.86;1858537;77;21029;-71
2022/08/19 06:41:46;;;;;;;11.22;4.37;;;;;;;30.46;45.12;99835.33;1858265;77;21689;-70
2022/08/19 06:44:15;;;;;;;18.65;5.03;;;;;;;30.43;45.74;99829.42;1857832;77;21189;-70
2022/08/19 06:46:41;;;;;;;14.25;4.75;;;;;;;30.33;45.47;99831.63;1858279;77;21525;-70
2022/08/19 06:49:13;;;;;;;10.75;4.30;;;;;;;30.20;46.09;99819.53;1858239;77;21073;-69
2022/08/19 06:51:42;;;;;;;12.20;4.30;;;;;;;30.39;46.48;99819.97;1858098;77;21021;-70
2022/08/19 06:54:10;;;;;;;19.90;4.90;;;;;;;30.76;45.27;99816.17;1870764;76;21205;-71
2022/08/19 06:56:37;;;;;;;13.03;3.85;;;;;;;31.05;44.33;99819.77;1878066;76;21304;-69
2022/08/19 06:59:08;;;;;;;13.08;4.50;;;;;;;31.21;44.40;99815.91;1878155;76;21017;-70
2022/08/19 07:01:39;;;;;;;12.30;4.30;;;;;;;31.45;43.64;99818.20;1878706;76;21041;-70
2022/08/19 07:04:07;;;;;;;13.05;4.37;;;;;;;31.67;43.49;99826.25;1877980;76;21021;-71
2022/08/19 07:06:34;;;;;;;15.70;4.53;;;;;;;31.80;41.86;99822.24;1878226;76;22298;-71
2022/08/19 07:09:02;;;;;;;14.23;5.05;;;;;;;31.49;42.45;99831.70;1878292;76;21009;-69
2022/08/19 07:11:30;;;;;;;13.93;4.53;;;;;;;31.19;43.87;99828.33;1878481;76;21032;-70
2022/08/19 07:13:57;;;;;;;11.70;4.33;;;;;;;31.05;44.22;99839.63;1878474;76;20971;-72
2022/08/19 07:16:23;;;;;;;13.08;4.25;;;;;;;31.15;44.08;99840.14;1878649;76;21542;-70
2022/08/19 07:18:50;;;;;;;15.45;5.05;;;;;;;31.24;43.00;99831.81;1878348;76;21526;-70
2022/08/19 07:21:24;;;;;;;13.78;4.80;;;;;;;30.99;43.72;99835.00;1878237;76;21005;-70
2022/08/19 07:23:51;;;;;;;14.25;4.85;;;;;;;30.74;44.42;99831.83;1878340;76;21604;-70
2022/08/19 07:26:26;;;;;;;14.38;4.50;;;;;;;30.67;44.61;99837.20;1878407;76;21052;-72
2022/08/19 07:28:54;;;;;;;13.28;4.58;;;;;;;30.80;44.55;99835.63;1877066;76;21044;-71
2022/08/19 07:31:24;;;;;;;18.17;4.78;;;;;;;30.94;44.62;99835.59;1878211;76;21078;-71
2022/08/19 07:33:55;;;;;;;16.90;4.65;;;;;;;31.28;43.99;99833.11;1878356;76;20969;-70
2022/08/19 07:36:25;;;;;;;15.85;4.30;;;;;;;31.37;43.53;99834.63;1878197;76;21059;-71
2022/08/19 07:38:54;;;;;;;8.98;4.55;;;;;;;31.41;43.27;99834.59;1878664;76;21009;-70
2022/08/19 07:41:24;;;;;;;14.83;5.05;;;;;;;31.49;43.60;99835.78;1878464;76;21024;-71
2022/08/19 07:43:51;;;;;;;16.25;4.65;;;;;;;31.68;43.28;99838.81;1878537;76;21861;-70
2022/08/19 07:46:20;;;;;;;15.10;5.00;;;;;;;31.92;42.78;99835.59;1878498;76;21578;-70
2022/08/19 07:48:47;;;;;;;19.17;4.72;;;;;;;32.11;41.92;99831.28;1878677;76;21063;-70
2022/08/19 07:51:16;;;;;;;21.65;4.40;;;;;;;31.91;42.03;99832.55;1878640;76;21036;-70
2022/08/19 07:53:44;;;;;;;11.00;4.40;;;;;;;31.39;42.80;99825.75;1870158;76;21245;-71
2022/08/19 07:56:13;;;;;;;17.67;5.17;;;;;;;30.98;43.77;99830.59;1858629;77;21696;-70
2022/08/19 07:58:42;;;;;;;20.90;7.25;;;;;;;30.88;44.44;99831.45;1858128;77;21025;-70
2022/08/19 08:01:13;;;;;;;16.40;5.12;;;;;;;30.84;44.79;99836.92;1858227;77;21026;-71
2022/08/19 08:09:11;;;;;;;14.73;4.87;;;;;;;31.14;44.96;99834.89;1858349;77;21705;-71
2022/08/19 08:11:48;;;;;;;15.08;4.72;;;;;;;31.38;43.46;99855.34;1858867;77;22121;-71
2022/08/19 08:14:22;;;;;;;11.63;4.65;;;;;;;31.47;43.40;99843.83;1858513;77;21065;-71
2022/08/19 08:16:50;;;;;;;16.23;5.28;;;;;;;31.67;43.37;99843.95;1858125;77;21021;-71
2022/08/19 08:19:21;;;;;;;10.43;4.35;;;;;;;31.59;43.23;99838.66;1858582;77;21502;-71
2022/08/19 08:21:49;;;;;;;16.35;5.28;;;;;;;31.39;43.66;99835.80;1858341;77;21135;-70
2022/08/19 08:24:16;;;;;;;14.45;4.70;;;;;;;31.47;44.14;99837.89;1858290;77;21022;-72
2022/08/19 08:26:45;;;;;;;14.65;4.62;;;;;;;31.55;43.61;99836.88;1860703;76;21033;-70
2022/08/19 08:29:12;;;;;;;18.80;4.90;;;;;;;31.62;43.25;99846.44;1860278;77;21021;-69
2022/08/19 08:31:42;;;;;;;13.95;5.50;;;;;;;31.79;43.03;99839.60;1861015;77;22133;-70
2022/08/19 08:34:08;;;;;;;17.25;4.87;;;;;;;32.00;42.15;99833.75;1860525;77;21175;-71
2022/08/19 08:36:44;;;;;;;18.52;5.12;;;;;;;32.07;42.06;99845.02;1860646;77;21033;-70
2022/08/19 08:39:15;;;;;;;15.45;4.60;;;;;;;32.12;42.10;99848.48;1860825;77;21526;-71
2022/08/19 08:42:19;;;;;;;14.78;5.00;;;;;;;32.28;41.22;99856.29;1861361;77;21088;-70
2022/08/19 08:45:01;;;;;;;15.95;4.37;;;;;;;32.43;41.55;99855.27;1860730;77;21092;-71
2022/08/19 08:47:34;;;;;;;15.20;4.70;;;;;;;32.29;41.09;99851.14;1860359;77;21175;-70
2022/08/19 08:50:23;;;;;;;11.33;4.35;;;;;;;32.14;41.57;99854.54;1861015;77;20996;-70
2022/08/19 08:52:54;;;;;;;13.28;4.80;;;;;;;31.84;42.25;99863.00;1861426;77;21021;-70
2022/08/19 08:55:27;;;;;;;12.65;5.30;;;;;;;31.50;43.19;99865.22;1861277;77;21269;-69
2022/08/19 08:58:05;;;;;;;8.53;4.60;;;;;;;31.09;44.25;99862.68;1861448;77;21001;-71
2022/08/19 09:00:36;;;;;;;15.45;4.42;;;;;;;30.97;45.17;99868.34;1861044;77;21901;-70
2022/08/19 09:03:05;;;;;;;9.70;4.90;;;;;;;30.85;44.73;99868.53;1860258;77;21047;-72
2022/08/19 09:05:47;;;;;;;13.43;4.57;;;;;;;30.70;45.75;99861.26;1861079;77;21454;-70
2022/08/19 09:08:37;;;;;;;20.37;4.97;;;;;;;30.74;46.29;99863.92;1860813;77;21112;-71
2022/08/19 09:11:10;;;;;;;17.00;4.90;;;;;;;30.68;45.71;99864.69;1854034;77;21732;-71
2022/08/19 09:14:04;;;;;;;13.80;5.22;;;;;;;30.42;46.62;99868.50;1861474;77;21280;-70
2022/08/19 09:16:30;;;;;;;18.30;5.03;;;;;;;30.31;46.98;99870.67;1859298;77;21048;-71
2022/08/19 09:19:03;;;;;;;18.30;4.97;;;;;;;30.23;47.33;99865.34;1861340;77;21054;-70
2022/08/19 09:21:30;;;;;;;13.65;5.28;;;;;;;29.93;48.07;99858.26;1861007;77;21010;-70
2022/08/19 09:23:58;;;;;;;16.17;5.15;;;;;;;29.62;49.27;99862.84;1861347;77;21053;-71
2022/08/19 09:26:25;;;;;;;16.82;5.03;;;;;;;29.67;49.50;99860.42;1860983;77;21600;-71
2022/08/19 09:28:52;;;;;;;17.35;5.42;;;;;;;29.75;49.75;99847.30;1861092;77;22190;-70
2022/08/19 09:31:23;;;;;;;15.58;5.20;;;;;;;29.96;49.43;99849.76;1861079;77;21034;-69
2022/08/19 09:33:49;;;;;;;16.93;5.60;;;;;;;30.13;48.85;99859.35;1861338;77;21084;-71
2022/08/19 09:36:18;;;;;;;19.20;5.55;;;;;;;29.99;48.71;99856.16;1861559;77;21010;-69
2022/08/19 09:38:45;;;;;;;16.48;5.17;;;;;;;29.67;49.52;99864.98;1861322;77;21272;-70
2022/08/19 09:41:15;;;;;;;13.35;4.65;;;;;;;29.35;50.66;99861.59;1861642;77;20989;-70
2022/08/19 09:43:43;;;;;;;19.10;5.28;;;;;;;29.26;51.19;99868.13;1861228;77;21037;-70
2022/08/19 09:46:10;;;;;;;9.33;4.92;;;;;;;29.29;51.22;99873.20;1858899;77;21093;-70
2022/08/19 09:48:37;;;;;;;13.13;4.92;;;;;;;29.35;51.01;99877.88;1857999;77;21068;-71
2022/08/19 09:51:11;;;;;;;16.25;5.10;;;;;;;29.53;50.79;99883.47;1858139;77;21073;-70
2022/08/19 09:53:38;;;;;;;16.62;5.08;;;;;;;29.61;50.98;99876.58;1844212;77;21053;-71
2022/08/19 09:56:05;;;;;;;12.78;5.42;;;;;;;29.65;50.83;99887.39;1824560;78;20997;-71
2022/08/19 09:58:34;;;;;;;14.85;5.33;;;;;;;29.42;50.89;99881.52;1824158;78;21031;-70
2022/08/19 10:01:01;;;;;;;12.88;5.20;;;;;;;29.09;51.56;99900.50;1824502;78;21695;-70
2022/08/19 10:03:29;;;;;;;15.70;5.60;;;;;;;28.80;52.55;99900.69;1794620;78;21216;-70
2022/08/19 10:05:58;;;;;;;15.28;4.80;;;;;;;28.87;52.83;99897.58;1824387;78;21004;-71
2022/08/19 10:08:32;;;;;;;13.45;4.75;;;;;;;29.28;52.81;99890.48;1824280;78;21013;-70
2022/08/19 10:10:59;;;;;;;12.90;4.70;;;;;;;29.77;51.04;99883.23;1824439;78;21028;-71
2022/08/19 10:13:29;;;;;;;7.85;4.70;;;;;;;30.05;50.35;99885.27;1824424;78;21017;-71
2022/08/19 10:15:58;;;;;;;12.45;4.55;;;;;;;30.31;49.51;99886.97;1824589;78;21224;-69
2022/08/19 10:18:25;;;;;;;12.40;4.62;;;;;;;30.45;47.85;99885.77;1824129;78;21024;-70
2022/08/19 10:20:53;;;;;;;14.98;4.58;;;;;;;30.27;48.44;99888.38;1824346;78;21075;-72
2022/08/19 10:23:20;;;;;;;11.48;4.65;;;;;;;30.06;48.69;99884.23;1824547;78;21012;-70
2022/08/19 10:25:49;;;;;;;14.00;4.45;;;;;;;29.90;48.97;99879.32;1824284;78;21035;-70
2022/08/19 10:28:16;;;;;;;15.15;4.72;;;;;;;29.79;48.79;99878.95;1824555;78;21093;-70
2022/08/19 10:30:44;;;;;;;14.70;4.83;;;;;;;29.68;49.39;99880.29;1824246;78;22036;-69
2022/08/19 10:33:11;;;;;;;10.28;4.70;;;;;;;29.64;49.29;99880.30;1824350;78;21059;-70
2022/08/19 10:35:38;;;;;;;9.85;4.22;;;;;;;29.77;50.05;99880.52;1824446;78;21032;-70
2022/08/19 10:38:05;;;;;;;9.38;4.03;;;;;;;30.14;49.23;99880.06;1824293;78;21005;-70
2022/08/19 10:40:31;;;;;;;13.50;4.45;;;;;;;30.43;47.33;99878.33;1824582;78;21560;-72
2022/08/19 10:42:58;;;;;;;12.30;4.55;;;;;;;30.60;47.30;99893.36;1824037;78;21032;-71
2022/08/19 10:45:26;;;;;;;16.23;4.17;;;;;;;30.53;46.62;99893.29;1825139;78;21217;-71
2022/08/19 10:47:53;;;;;;;12.60;4.50;;;;;;;30.28;47.06;99898.75;1827195;78;21031;-70
2022/08/19 10:53:08;;;;;;;10.85;3.92;;;;;;;30.03;47.91;99895.48;1832653;77;21017;-70
2022/08/19 10:58:25;;;;;;;16.15;4.15;;;;;;;30.08;47.28;99899.81;1853120;77;21032;-70
2022/08/19 11:00:57;;;;;;;20.55;4.80;;;;;;;30.07;48.06;99904.91;1850066;77;21037;-70
2022/08/19 11:03:24;;;;;;;12.75;4.05;;;;;;;30.03;48.08;99907.70;1849694;77;21584;-71
2022/08/19 11:06:06;;;;;;;13.60;4.22;;;;;;;30.02;47.56;99905.47;1849804;77;22141;-70
2022/08/19 11:08:34;;;;;;;16.55;4.85;;;;;;;29.92;47.91;99905.45;1849678;77;21528;-69
2022/08/19 11:11:02;;;;;;;11.00;4.62;;;;;;;29.73;48.11;99918.56;1850224;77;21024;-70
2022/08/19 11:13:32;;;;;;;11.18;4.12;;;;;;;29.51;48.19;99920.79;1849695;77;21068;-70
2022/08/19 11:16:03;;;;;;;11.15;3.98;;;;;;;29.30;48.87;99929.12;1849937;77;21000;-70
2022/08/19 11:18:29;;;;;;;15.40;4.85;;;;;;;29.16;49.38;99919.92;1848730;77;21305;-69
2022/08/19 11:21:13;;;;;;;12.53;4.20;;;;;;;29.00;50.14;99930.34;1849803;77;21009;-70
2022/08/19 11:23:40;;;;;;;13.40;4.22;;;;;;;28.78;50.58;99921.70;1849756;77;21470;-70
2022/08/19 11:26:07;;;;;;;13.13;4.70;;;;;;;28.43;50.92;99929.33;1849674;77;21036;-70
2022/08/19 11:28:34;;;;;;;16.85;4.62;;;;;;;28.11;51.87;99931.16;1849831;77;21020;-71
2022/08/19 11:31:01;;;;;;;14.10;4.33;;;;;;;27.91;52.55;99935.33;1850127;77;21557;-70
2022/08/19 11:33:27;;;;;;;14.93;4.62;;;;;;;27.71;53.47;99934.31;1849871;77;21009;-71
2022/08/19 11:35:54;;;;;;;16.67;5.20;;;;;;;27.65;54.25;99928.23;1849518;77;21023;-70
2022/08/19 11:38:20;;;;;;;13.13;4.72;;;;;;;27.66;53.67;99924.52;1849989;77;21080;-69
2022/08/19 11:40:56;;;;;;;13.48;4.97;;;;;;;27.60;53.79;99926.04;1849936;77;20985;-70
2022/08/19 11:43:24;;;;;;;11.25;4.25;;;;;;;27.62;54.56;99928.06;1854575;77;21160;-71
2022/08/19 11:45:51;;;;;;;13.18;4.25;;;;;;;27.71;54.56;99924.01;1860748;77;21743;-69
2022/08/19 11:48:21;;;;;;;14.40;4.50;;;;;;;27.79;53.59;99927.55;1860884;77;21034;-70
2022/08/19 11:50:46;;;;;;;9.00;4.45;;;;;;;27.70;53.75;99924.52;1860775;77;21553;-70